sensor_id;sensor_type;location;lat;lon;timestamp;temperature;humidity
44886;DHT22;36669;51.428;21.162;2022-09-01T00:01:19;12.80;99.90
44886;DHT22;36669;51.428;21.162;2022-09-01T00:03:46;12.80;99.90
44886;DHT22;36669;51.428;21.162;2022-09-01T00:06:11;12.70;99.90
44886;DHT22;36669;51.428;21.162;2022-09-01T00:08:37;12.70;99.90
44886;DHT22;36669;51.428;21.162;2022-09-01T00:11:03;12.70;99.90
44886;DHT22;36669;51.428;21.162;2022-09-01T00:13:28;12.60;99.90
44886;DHT22;36669;51.428;21.162;2022-09-01T00:15:54;12.60;99.90
44886;DHT22;36669;51.428;21.162;2022-09-01T00:18:19;12.60;99.90
44886;DHT22;36669;51.428;21.162;2022-09-01T00:20:45;12.50;99.90
44886;DHT22;36669;51.428;21.162;2022-09-01T00:23:10;12.60;99.90
44886;DHT22;36669;51.428;21.162;2022-09-01T00:25:36;12.50;99.90
44886;DHT22;36669;51.428;21.162;2022-09-01T00:28:01;12.50;99.90
44886;DHT22;36669;51.428;21.162;2022-09-01T00:30:27;12.40;99.90
44886;DHT22;36669;51.428;21.162;2022-09-01T00:32:52;12.40;99.90
44886;DHT22;36669;51.428;21.162;2022-09-01T00:35:19;12.40;99.90
44886;DHT22;36669;51.428;21.162;2022-09-01T00:37:44;12.40;99.90
44886;DHT22;36669;51.428;21.162;2022-09-01T00:40:12;12.30;99.90
44886;DHT22;36669;51.428;21.162;2022-09-01T00:42:39;12.30;99.90
44886;DHT22;36669;51.428;21.162;2022-09-01T00:45:06;12.30;99.90
44886;DHT22;36669;51.428;21.162;2022-09-01T00:47:32;12.30;99.90
44886;DHT22;36669;51.428;21.162;2022-09-01T00:49:58;12.20;99.90
44886;DHT22;36669;51.428;21.162;2022-09-01T00:52:31;12.20;99.90
44886;DHT22;36669;51.428;21.162;2022-09-01T00:55:02;12.20;99.90
44886;DHT22;36669;51.428;21.162;2022-09-01T00:57:28;12.20;99.90
44886;DHT22;36669;51.428;21.162;2022-09-01T01:00:01;12.20;99.90
44886;DHT22;36669;51.428;21.162;2022-09-01T01:02:28;12.10;99.90
44886;DHT22;36669;51.428;21.162;2022-09-01T01:04:54;12.10;99.90
44886;DHT22;36669;51.428;21.162;2022-09-01T01:07:20;12.00;99.90
44886;DHT22;36669;51.428;21.162;2022-09-01T01:09:46;12.00;99.90
44886;DHT22;36669;51.428;21.162;2022-09-01T01:12:12;11.90;99.90
44886;DHT22;36669;51.428;21.162;2022-09-01T01:14:37;11.90;99.90
44886;DHT22;36669;51.428;21.162;2022-09-01T01:17:03;11.90;99.90
44886;DHT22;36669;51.428;21.162;2022-09-01T01:25:12;11.90;99.90
44886;DHT22;36669;51.428;21.162;2022-09-01T01:27:38;11.90;99.90
44886;DHT22;36669;51.428;21.162;2022-09-01T01:30:05;11.80;99.90
44886;DHT22;36669;51.428;21.162;2022-09-01T01:32:31;11.80;99.90
44886;DHT22;36669;51.428;21.162;2022-09-01T01:34:57;11.80;99.90
44886;DHT22;36669;51.428;21.162;2022-09-01T01:37:22;11.80;99.90
44886;DHT22;36669;51.428;21.162;2022-09-01T01:39:48;11.80;99.90
44886;DHT22;36669;51.428;21.162;2022-09-01T01:42:13;11.80;99.90
44886;DHT22;36669;51.428;21.162;2022-09-01T01:44:39;11.70;99.90
44886;DHT22;36669;51.428;21.162;2022-09-01T01:47:08;11.70;99.90
44886;DHT22;36669;51.428;21.162;2022-09-01T01:49:35;11.60;99.90
44886;DHT22;36669;51.428;21.162;2022-09-01T01:52:01;11.60;99.90
44886;DHT22;36669;51.428;21.162;2022-09-01T01:54:27;11.60;99.90
44886;DHT22;36669;51.428;21.162;2022-09-01T01:56:53;11.50;99.90
44886;DHT22;36669;51.428;21.162;2022-09-01T01:59:18;11.50;99.90
44886;DHT22;36669;51.428;21.162;2022-09-01T02:01:44;11.50;99.90
44886;DHT22;36669;51.428;21.162;2022-09-01T02:04:10;11.50;99.90
44886;DHT22;36669;51.428;21.162;2022-09-01T02:06:37;11.50;99.90
44886;DHT22;36669;51.428;21.162;2022-09-01T02:09:02;11.50;99.90
44886;DHT22;36669;51.428;21.162;2022-09-01T02:11:29;11.50;99.90
44886;DHT22;36669;51.428;21.162;2022-09-01T02:13:55;11.50;99.90
44886;DHT22;36669;51.428;21.162;2022-09-01T02:16:24;11.60;99.90
44886;DHT22;36669;51.428;21.162;2022-09-01T02:18:50;11.50;99.90
44886;DHT22;36669;51.428;21.162;2022-09-01T02:21:19;11.50;99.90
44886;DHT22;36669;51.428;21.162;2022-09-01T02:23:51;11.50;99.90
44886;DHT22;36669;51.428;21.162;2022-09-01T02:26:17;11.50;99.90
44886;DHT22;36669;51.428;21.162;2022-09-01T02:28:44;11.40;99.90
44886;DHT22;36669;51.428;21.162;2022-09-01T02:31:10;11.50;99.90
44886;DHT22;36669;51.428;21.162;2022-09-01T02:33:37;11.40;99.90
44886;DHT22;36669;51.428;21.162;2022-09-01T02:36:08;11.40;99.90
44886;DHT22;36669;51.428;21.162;2022-09-01T02:38:35;11.30;99.90
44886;DHT22;36669;51.428;21.162;2022-09-01T02:41:01;11.30;99.90
44886;DHT22;36669;51.428;21.162;2022-09-01T02:43:28;11.20;99.90
44886;DHT22;36669;51.428;21.162;2022-09-01T02:45:58;11.20;99.90
44886;DHT22;36669;51.428;21.162;2022-09-01T02:48:36;11.20;99.90
44886;DHT22;36669;51.428;21.162;2022-09-01T02:51:10;11.20;99.90
44886;DHT22;36669;51.428;21.162;2022-09-01T02:53:37;11.10;99.90
44886;DHT22;36669;51.428;21.162;2022-09-01T02:56:05;11.00;99.90
44886;DHT22;36669;51.428;21.162;2022-09-01T02:58:31;11.10;99.90
44886;DHT22;36669;51.428;21.162;2022-09-01T03:00:56;11.00;99.90
44886;DHT22;36669;51.428;21.162;2022-09-01T03:03:23;10.90;99.90
44886;DHT22;36669;51.428;21.162;2022-09-01T03:05:53;11.00;99.90
44886;DHT22;36669;51.428;21.162;2022-09-01T03:08:18;10.90;99.90
44886;DHT22;36669;51.428;21.162;2022-09-01T03:10:44;10.80;99.90
44886;DHT22;36669;51.428;21.162;2022-09-01T03:13:14;10.80;99.90
44886;DHT22;36669;51.428;21.162;2022-09-01T03:15:41;10.90;99.90
44886;DHT22;36669;51.428;21.162;2022-09-01T03:18:08;10.90;99.90
44886;DHT22;36669;51.428;21.162;2022-09-01T03:20:35;10.90;99.90
44886;DHT22;36669;51.428;21.162;2022-09-01T03:23:06;10.90;99.90
44886;DHT22;36669;51.428;21.162;2022-09-01T03:25:32;10.90;99.90
44886;DHT22;36669;51.428;21.162;2022-09-01T03:27:57;10.90;99.90
44886;DHT22;36669;51.428;21.162;2022-09-01T03:30:23;10.90;99.90
44886;DHT22;36669;51.428;21.162;2022-09-01T03:32:48;10.90;99.90
44886;DHT22;36669;51.428;21.162;2022-09-01T03:35:14;10.90;99.90
44886;DHT22;36669;51.428;21.162;2022-09-01T03:37:40;10.90;99.90
44886;DHT22;36669;51.428;21.162;2022-09-01T03:40:06;10.80;99.90
44886;DHT22;36669;51.428;21.162;2022-09-01T03:42:32;10.80;99.90
44886;DHT22;36669;51.428;21.162;2022-09-01T03:44:57;10.80;99.90
44886;DHT22;36669;51.428;21.162;2022-09-01T03:47:23;10.70;99.90
44886;DHT22;36669;51.428;21.162;2022-09-01T03:49:49;10.70;99.90
44886;DHT22;36669;51.428;21.162;2022-09-01T03:52:16;10.70;99.90
44886;DHT22;36669;51.428;21.162;2022-09-01T03:54:42;10.70;99.90
44886;DHT22;36669;51.428;21.162;2022-09-01T03:57:09;10.70;99.90
44886;DHT22;36669;51.428;21.162;2022-09-01T03:59:36;10.70;99.90
44886;DHT22;36669;51.428;21.162;2022-09-01T04:02:01;10.70;99.90
44886;DHT22;36669;51.428;21.162;2022-09-01T04:04:28;10.70;99.90
44886;DHT22;36669;51.428;21.162;2022-09-01T04:06:53;10.70;99.90
44886;DHT22;36669;51.428;21.162;2022-09-01T04:09:19;10.70;99.90
44886;DHT22;36669;51.428;21.162;2022-09-01T04:11:44;10.70;99.90
44886;DHT22;36669;51.428;21.162;2022-09-01T04:14:10;10.70;99.90
44886;DHT22;36669;51.428;21.162;2022-09-01T04:16:35;10.70;99.90
44886;DHT22;36669;51.428;21.162;2022-09-01T04:19:01;10.70;99.90
44886;DHT22;36669;51.428;21.162;2022-09-01T04:21:27;10.80;99.90
44886;DHT22;36669;51.428;21.162;2022-09-01T04:23:52;10.80;99.90
44886;DHT22;36669;51.428;21.162;2022-09-01T04:26:18;10.90;99.90
44886;DHT22;36669;51.428;21.162;2022-09-01T04:28:46;10.80;99.90
44886;DHT22;36669;51.428;21.162;2022-09-01T04:31:14;10.80;99.90
44886;DHT22;36669;51.428;21.162;2022-09-01T04:33:40;10.80;99.90
44886;DHT22;36669;51.428;21.162;2022-09-01T04:36:15;10.80;99.90
44886;DHT22;36669;51.428;21.162;2022-09-01T04:38:41;10.80;99.90
44886;DHT22;36669;51.428;21.162;2022-09-01T04:41:07;10.80;99.90
44886;DHT22;36669;51.428;21.162;2022-09-01T04:43:33;10.80;99.90
44886;DHT22;36669;51.428;21.162;2022-09-01T04:46:00;10.80;99.90
44886;DHT22;36669;51.428;21.162;2022-09-01T04:48:26;10.90;99.90
44886;DHT22;36669;51.428;21.162;2022-09-01T04:50:51;10.90;99.90
44886;DHT22;36669;51.428;21.162;2022-09-01T04:53:18;10.90;99.90
44886;DHT22;36669;51.428;21.162;2022-09-01T04:55:44;11.00;99.90
44886;DHT22;36669;51.428;21.162;2022-09-01T04:58:12;11.00;99.90
44886;DHT22;36669;51.428;21.162;2022-09-01T05:00:39;11.00;99.90
44886;DHT22;36669;51.428;21.162;2022-09-01T05:03:04;11.10;99.90
44886;DHT22;36669;51.428;21.162;2022-09-01T05:05:42;11.10;99.90
44886;DHT22;36669;51.428;21.162;2022-09-01T05:08:10;11.20;99.90
44886;DHT22;36669;51.428;21.162;2022-09-01T05:10:38;11.20;99.90
44886;DHT22;36669;51.428;21.162;2022-09-01T05:13:04;11.30;99.90
44886;DHT22;36669;51.428;21.162;2022-09-01T05:15:29;11.30;99.90
44886;DHT22;36669;51.428;21.162;2022-09-01T05:17:55;11.40;99.90
44886;DHT22;36669;51.428;21.162;2022-09-01T05:20:20;11.40;99.90
44886;DHT22;36669;51.428;21.162;2022-09-01T05:22:46;11.40;99.90
44886;DHT22;36669;51.428;21.162;2022-09-01T05:25:11;11.50;99.90
44886;DHT22;36669;51.428;21.162;2022-09-01T05:27:41;11.50;99.90
44886;DHT22;36669;51.428;21.162;2022-09-01T05:30:07;11.50;99.90
44886;DHT22;36669;51.428;21.162;2022-09-01T05:32:34;11.60;99.90
44886;DHT22;36669;51.428;21.162;2022-09-01T05:35:00;11.60;99.90
44886;DHT22;36669;51.428;21.162;2022-09-01T05:37:25;11.70;99.90
44886;DHT22;36669;51.428;21.162;2022-09-01T05:39:51;11.70;99.90
44886;DHT22;36669;51.428;21.162;2022-09-01T05:42:16;11.70;99.90
44886;DHT22;36669;51.428;21.162;2022-09-01T05:44:42;11.80;99.90
44886;DHT22;36669;51.428;21.162;2022-09-01T05:47:07;11.90;99.90
44886;DHT22;36669;51.428;21.162;2022-09-01T05:49:33;11.90;99.90
44886;DHT22;36669;51.428;21.162;2022-09-01T05:51:59;12.00;99.90
44886;DHT22;36669;51.428;21.162;2022-09-01T05:54:25;12.00;99.90
44886;DHT22;36669;51.428;21.162;2022-09-01T05:56:51;12.10;99.90
44886;DHT22;36669;51.428;21.162;2022-09-01T05:59:16;12.20;99.90
44886;DHT22;36669;51.428;21.162;2022-09-01T06:01:42;12.20;99.90
44886;DHT22;36669;51.428;21.162;2022-09-01T06:04:08;12.30;99.90
44886;DHT22;36669;51.428;21.162;2022-09-01T06:06:41;12.40;99.90
44886;DHT22;36669;51.428;21.162;2022-09-01T06:09:08;12.50;99.90
44886;DHT22;36669;51.428;21.162;2022-09-01T06:11:34;12.60;99.90
44886;DHT22;36669;51.428;21.162;2022-09-01T06:14:00;12.60;99.90
44886;DHT22;36669;51.428;21.162;2022-09-01T06:16:27;12.70;99.90
44886;DHT22;36669;51.428;21.162;2022-09-01T06:18:53;12.80;99.90
44886;DHT22;36669;51.428;21.162;2022-09-01T06:21:20;12.90;99.90
44886;DHT22;36669;51.428;21.162;2022-09-01T06:23:46;12.90;99.90
44886;DHT22;36669;51.428;21.162;2022-09-01T06:26:26;13.00;99.90
44886;DHT22;36669;51.428;21.162;2022-09-01T06:28:53;13.00;99.90
44886;DHT22;36669;51.428;21.162;2022-09-01T06:31:23;13.10;99.90
44886;DHT22;36669;51.428;21.162;2022-09-01T06:33:51;13.20;99.90
44886;DHT22;36669;51.428;21.162;2022-09-01T06:36:16;13.30;99.90
44886;DHT22;36669;51.428;21.162;2022-09-01T06:38:42;13.30;99.90
44886;DHT22;36669;51.428;21.162;2022-09-01T06:41:07;13.40;99.90
44886;DHT22;36669;51.428;21.162;2022-09-01T06:43:33;13.50;99.90
44886;DHT22;36669;51.428;21.162;2022-09-01T06:46:00;13.60;99.90
44886;DHT22;36669;51.428;21.162;2022-09-01T06:48:26;13.70;99.90
44886;DHT22;36669;51.428;21.162;2022-09-01T06:50:52;13.80;99.90
44886;DHT22;36669;51.428;21.162;2022-09-01T06:53:18;13.90;99.90
44886;DHT22;36669;51.428;21.162;2022-09-01T06:55:46;14.00;99.90
44886;DHT22;36669;51.428;21.162;2022-09-01T06:58:13;14.10;99.90
44886;DHT22;36669;51.428;21.162;2022-09-01T07:00:38;14.20;99.90
44886;DHT22;36669;51.428;21.162;2022-09-01T07:03:04;14.30;99.90
44886;DHT22;36669;51.428;21.162;2022-09-01T07:05:30;14.40;99.90
44886;DHT22;36669;51.428;21.162;2022-09-01T07:07:55;14.40;99.90
44886;DHT22;36669;51.428;21.162;2022-09-01T07:10:26;14.50;99.90
44886;DHT22;36669;51.428;21.162;2022-09-01T07:12:54;14.50;99.90
44886;DHT22;36669;51.428;21.162;2022-09-01T07:15:20;14.60;99.90
44886;DHT22;36669;51.428;21.162;2022-09-01T07:17:51;14.70;99.90
44886;DHT22;36669;51.428;21.162;2022-09-01T07:20:19;14.80;99.90
44886;DHT22;36669;51.428;21.162;2022-09-01T07:22:46;15.00;99.90
44886;DHT22;36669;51.428;21.162;2022-09-01T07:25:13;15.10;99.90
44886;DHT22;36669;51.428;21.162;2022-09-01T07:27:40;15.20;99.90
44886;DHT22;36669;51.428;21.162;2022-09-01T07:30:07;15.30;99.90
44886;DHT22;36669;51.428;21.162;2022-09-01T07:32:32;15.40;99.90
44886;DHT22;36669;51.428;21.162;2022-09-01T07:34:58;15.40;99.90
44886;DHT22;36669;51.428;21.162;2022-09-01T07:37:24;15.50;99.90
44886;DHT22;36669;51.428;21.162;2022-09-01T07:39:50;15.60;99.90
44886;DHT22;36669;51.428;21.162;2022-09-01T07:42:17;15.50;99.90
44886;DHT22;36669;51.428;21.162;2022-09-01T07:44:42;15.60;99.90
44886;DHT22;36669;51.428;21.162;2022-09-01T07:47:08;15.70;99.90
44886;DHT22;36669;51.428;21.162;2022-09-01T07:49:34;15.80;99.90
44886;DHT22;36669;51.428;21.162;2022-09-01T07:52:00;15.80;99.90
44886;DHT22;36669;51.428;21.162;2022-09-01T07:54:25;15.90;99.90
44886;DHT22;36669;51.428;21.162;2022-09-01T07:56:51;15.90;99.90
44886;DHT22;36669;51.428;21.162;2022-09-01T07:59:16;16.00;99.90
44886;DHT22;36669;51.428;21.162;2022-09-01T08:01:42;16.10;99.90
44886;DHT22;36669;51.428;21.162;2022-09-01T08:04:07;16.10;99.90
44886;DHT22;36669;51.428;21.162;2022-09-01T08:06:34;16.20;99.90
44886;DHT22;36669;51.428;21.162;2022-09-01T08:08:59;16.20;99.90
44886;DHT22;36669;51.428;21.162;2022-09-01T08:11:29;16.30;99.90
44886;DHT22;36669;51.428;21.162;2022-09-01T08:13:56;16.30;99.90
44886;DHT22;36669;51.428;21.162;2022-09-01T08:16:22;16.40;99.90
44886;DHT22;36669;51.428;21.162;2022-09-01T08:18:47;16.40;99.90
44886;DHT22;36669;51.428;21.162;2022-09-01T08:21:14;16.50;99.90
44886;DHT22;36669;51.428;21.162;2022-09-01T08:23:40;16.50;99.90
44886;DHT22;36669;51.428;21.162;2022-09-01T08:26:11;16.60;99.90
44886;DHT22;36669;51.428;21.162;2022-09-01T08:28:37;16.50;99.90
44886;DHT22;36669;51.428;21.162;2022-09-01T08:31:12;16.50;99.90
44886;DHT22;36669;51.428;21.162;2022-09-01T08:33:38;16.50;99.90
44886;DHT22;36669;51.428;21.162;2022-09-01T08:36:06;16.50;99.90
44886;DHT22;36669;51.428;21.162;2022-09-01T08:38:32;16.60;99.90
44886;DHT22;36669;51.428;21.162;2022-09-01T08:40:58;16.60;99.90
44886;DHT22;36669;51.428;21.162;2022-09-01T08:46:31;16.80;99.90
44886;DHT22;36669;51.428;21.162;2022-09-01T08:48:59;16.90;99.90
44886;DHT22;36669;51.428;21.162;2022-09-01T08:51:38;17.00;99.90
44886;DHT22;36669;51.428;21.162;2022-09-01T08:56:39;17.10;99.90
44886;DHT22;36669;51.428;21.162;2022-09-01T08:59:07;17.10;99.90
44886;DHT22;36669;51.428;21.162;2022-09-01T09:09:17;17.20;99.90
44886;DHT22;36669;51.428;21.162;2022-09-01T09:12:07;17.30;99.90
44886;DHT22;36669;51.428;21.162;2022-09-01T09:17:34;17.50;99.90
44886;DHT22;36669;51.428;21.162;2022-09-01T09:20:00;17.50;99.90
44886;DHT22;36669;51.428;21.162;2022-09-01T09:22:26;17.50;99.90
44886;DHT22;36669;51.428;21.162;2022-09-01T09:25:08;17.60;99.90
44886;DHT22;36669;51.428;21.162;2022-09-01T09:27:37;17.60;99.90
44886;DHT22;36669;51.428;21.162;2022-09-01T09:30:32;17.60;99.90
44886;DHT22;36669;51.428;21.162;2022-09-01T09:33:04;17.50;99.90
44886;DHT22;36669;51.428;21.162;2022-09-01T09:35:37;17.60;99.90
44886;DHT22;36669;51.428;21.162;2022-09-01T09:40:38;17.80;99.90
44886;DHT22;36669;51.428;21.162;2022-09-01T09:43:05;17.90;99.90
44886;DHT22;36669;51.428;21.162;2022-09-01T09:45:37;18.00;99.90
44886;DHT22;36669;51.428;21.162;2022-09-01T09:48:26;18.10;99.90
44886;DHT22;36669;51.428;21.162;2022-09-01T09:50:52;18.20;99.90
44886;DHT22;36669;51.428;21.162;2022-09-01T09:53:25;18.40;99.90
44886;DHT22;36669;51.428;21.162;2022-09-01T09:56:02;18.50;99.90
44886;DHT22;36669;51.428;21.162;2022-09-01T09:58:37;18.60;99.90
44886;DHT22;36669;51.428;21.162;2022-09-01T10:03:59;18.70;99.90
44886;DHT22;36669;51.428;21.162;2022-09-01T10:06:39;18.70;99.90
44886;DHT22;36669;51.428;21.162;2022-09-01T10:09:14;18.80;99.90
44886;DHT22;36669;51.428;21.162;2022-09-01T10:11:42;18.80;99.90
44886;DHT22;36669;51.428;21.162;2022-09-01T10:14:28;18.70;99.90
44886;DHT22;36669;51.428;21.162;2022-09-01T10:17:14;18.60;99.90
44886;DHT22;36669;51.428;21.162;2022-09-01T10:19:50;18.70;99.90
44886;DHT22;36669;51.428;21.162;2022-09-01T10:22:16;18.80;99.50
44886;DHT22;36669;51.428;21.162;2022-09-01T10:24:42;19.00;99.60
44886;DHT22;36669;51.428;21.162;2022-09-01T10:27:23;18.90;99.00
44886;DHT22;36669;51.428;21.162;2022-09-01T10:30:17;19.10;99.70
44886;DHT22;36669;51.428;21.162;2022-09-01T10:32:48;19.20;99.40
44886;DHT22;36669;51.428;21.162;2022-09-01T10:35:31;19.20;99.40
44886;DHT22;36669;51.428;21.162;2022-09-01T10:38:02;19.20;99.90
44886;DHT22;36669;51.428;21.162;2022-09-01T10:42:56;19.50;99.40
44886;DHT22;36669;51.428;21.162;2022-09-01T10:45:37;19.70;99.10
44886;DHT22;36669;51.428;21.162;2022-09-01T10:48:22;19.60;98.90
44886;DHT22;36669;51.428;21.162;2022-09-01T10:50:50;19.60;98.20
44886;DHT22;36669;51.428;21.162;2022-09-01T11:04:07;20.30;97.00
44886;DHT22;36669;51.428;21.162;2022-09-01T11:14:33;20.90;94.50
44886;DHT22;36669;51.428;21.162;2022-09-01T11:17:55;20.60;94.20
44886;DHT22;36669;51.428;21.162;2022-09-01T11:20:09;20.70;95.40
44886;DHT22;36669;51.428;21.162;2022-09-01T11:22:39;20.80;94.40
44886;DHT22;36669;51.428;21.162;2022-09-01T11:30:17;21.70;92.80
44886;DHT22;36669;51.428;21.162;2022-09-01T11:32:46;21.00;92.20
44886;DHT22;36669;51.428;21.162;2022-09-01T11:35:20;20.70;92.70
44886;DHT22;36669;51.428;21.162;2022-09-01T11:37:48;20.20;92.70
44886;DHT22;36669;51.428;21.162;2022-09-01T11:40:23;20.40;93.30
44886;DHT22;36669;51.428;21.162;2022-09-01T11:42:50;20.70;93.30
44886;DHT22;36669;51.428;21.162;2022-09-01T11:45:23;20.50;91.90
44886;DHT22;36669;51.428;21.162;2022-09-01T11:48:22;20.00;93.80
44886;DHT22;36669;51.428;21.162;2022-09-01T11:50:59;19.60;97.30
44886;DHT22;36669;51.428;21.162;2022-09-01T11:53:26;19.30;98.80
44886;DHT22;36669;51.428;21.162;2022-09-01T11:55:54;19.50;99.50
44886;DHT22;36669;51.428;21.162;2022-09-01T12:00:52;19.60;98.50
44886;DHT22;36669;51.428;21.162;2022-09-01T12:03:21;19.20;98.70
44886;DHT22;36669;51.428;21.162;2022-09-01T12:05:52;18.80;99.60
44886;DHT22;36669;51.428;21.162;2022-09-01T12:08:18;18.60;99.90
44886;DHT22;36669;51.428;21.162;2022-09-01T12:10:45;18.60;99.90
44886;DHT22;36669;51.428;21.162;2022-09-01T12:13:17;18.60;99.90
44886;DHT22;36669;51.428;21.162;2022-09-01T12:15:50;18.50;99.90
44886;DHT22;36669;51.428;21.162;2022-09-01T12:18:22;18.40;99.40
44886;DHT22;36669;51.428;21.162;2022-09-01T12:20:50;18.40;98.50
44886;DHT22;36669;51.428;21.162;2022-09-01T12:23:25;18.50;97.80
44886;DHT22;36669;51.428;21.162;2022-09-01T12:25:53;18.50;99.10
44886;DHT22;36669;51.428;21.162;2022-09-01T12:28:20;18.70;99.40
44886;DHT22;36669;51.428;21.162;2022-09-01T12:30:46;18.90;98.90
44886;DHT22;36669;51.428;21.162;2022-09-01T12:33:12;19.10;98.30
44886;DHT22;36669;51.428;21.162;2022-09-01T12:35:38;19.10;97.40
44886;DHT22;36669;51.428;21.162;2022-09-01T12:38:36;19.10;98.00
44886;DHT22;36669;51.428;21.162;2022-09-01T12:41:01;19.20;97.00
44886;DHT22;36669;51.428;21.162;2022-09-01T12:43:46;19.30;95.20
44886;DHT22;36669;51.428;21.162;2022-09-01T12:46:12;19.60;95.20
44886;DHT22;36669;51.428;21.162;2022-09-01T12:48:39;20.20;95.90
44886;DHT22;36669;51.428;21.162;2022-09-01T12:51:31;20.80;94.40
44886;DHT22;36669;51.428;21.162;2022-09-01T12:53:58;21.30;94.30
44886;DHT22;36669;51.428;21.162;2022-09-01T12:56:35;21.50;92.40
44886;DHT22;36669;51.428;21.162;2022-09-01T12:59:32;21.80;91.00
44886;DHT22;36669;51.428;21.162;2022-09-01T13:02:35;21.50;90.70
44886;DHT22;36669;51.428;21.162;2022-09-01T13:05:34;21.70;91.20
44886;DHT22;36669;51.428;21.162;2022-09-01T13:08:20;21.70;90.50
44886;DHT22;36669;51.428;21.162;2022-09-01T13:10:52;22.30;89.70
44886;DHT22;36669;51.428;21.162;2022-09-01T13:13:19;22.10;86.00
44886;DHT22;36669;51.428;21.162;2022-09-01T13:15:47;22.20;83.80
44886;DHT22;36669;51.428;21.162;2022-09-01T13:18:18;22.20;82.90
44886;DHT22;36669;51.428;21.162;2022-09-01T13:20:43;22.60;83.70
44886;DHT22;36669;51.428;21.162;2022-09-01T13:23:09;23.20;83.00
44886;DHT22;36669;51.428;21.162;2022-09-01T13:25:35;23.50;81.90
44886;DHT22;36669;51.428;21.162;2022-09-01T13:28:01;24.30;81.50
44886;DHT22;36669;51.428;21.162;2022-09-01T13:30:26;24.30;79.40
44886;DHT22;36669;51.428;21.162;2022-09-01T13:32:52;23.90;79.40
44886;DHT22;36669;51.428;21.162;2022-09-01T13:35:19;24.60;79.30
44886;DHT22;36669;51.428;21.162;2022-09-01T13:37:46;24.90;77.50
44886;DHT22;36669;51.428;21.162;2022-09-01T13:40:12;24.70;78.00
44886;DHT22;36669;51.428;21.162;2022-09-01T13:42:38;23.90;80.60
44886;DHT22;36669;51.428;21.162;2022-09-01T13:45:04;23.60;80.30
44886;DHT22;36669;51.428;21.162;2022-09-01T13:47:29;23.00;82.00
44886;DHT22;36669;51.428;21.162;2022-09-01T13:49:55;22.10;84.30
44886;DHT22;36669;51.428;21.162;2022-09-01T13:52:21;21.60;86.20
44886;DHT22;36669;51.428;21.162;2022-09-01T13:54:46;20.90;88.00
44886;DHT22;36669;51.428;21.162;2022-09-01T13:57:12;20.40;90.00
44886;DHT22;36669;51.428;21.162;2022-09-01T13:59:38;20.30;90.80
44886;DHT22;36669;51.428;21.162;2022-09-01T14:02:04;20.60;91.10
44886;DHT22;36669;51.428;21.162;2022-09-01T14:04:30;20.60;91.20
44886;DHT22;36669;51.428;21.162;2022-09-01T14:06:55;20.60;91.50
44886;DHT22;36669;51.428;21.162;2022-09-01T14:09:21;20.90;91.30
44886;DHT22;36669;51.428;21.162;2022-09-01T14:11:48;21.70;90.80
44886;DHT22;36669;51.428;21.162;2022-09-01T14:14:16;22.30;85.70
44886;DHT22;36669;51.428;21.162;2022-09-01T14:16:41;23.00;83.20
44886;DHT22;36669;51.428;21.162;2022-09-01T14:19:10;23.70;78.00
44886;DHT22;36669;51.428;21.162;2022-09-01T14:21:36;24.10;78.40
44886;DHT22;36669;51.428;21.162;2022-09-01T14:24:02;24.20;78.60
44886;DHT22;36669;51.428;21.162;2022-09-01T14:26:27;24.30;77.30
44886;DHT22;36669;51.428;21.162;2022-09-01T14:28:53;24.30;77.70
44886;DHT22;36669;51.428;21.162;2022-09-01T14:31:19;24.70;75.40
44886;DHT22;36669;51.428;21.162;2022-09-01T14:33:44;25.20;73.70
44886;DHT22;36669;51.428;21.162;2022-09-01T14:36:20;25.20;71.60
44886;DHT22;36669;51.428;21.162;2022-09-01T14:38:47;25.70;71.00
44886;DHT22;36669;51.428;21.162;2022-09-01T14:41:14;27.10;67.90
44886;DHT22;36669;51.428;21.162;2022-09-01T14:43:40;27.60;65.20
44886;DHT22;36669;51.428;21.162;2022-09-01T14:46:08;26.90;62.70
44886;DHT22;36669;51.428;21.162;2022-09-01T14:48:34;26.80;61.40
44886;DHT22;36669;51.428;21.162;2022-09-01T14:50:59;27.80;63.00
44886;DHT22;36669;51.428;21.162;2022-09-01T14:53:26;28.10;58.40
44886;DHT22;36669;51.428;21.162;2022-09-01T14:55:51;27.90;56.40
44886;DHT22;36669;51.428;21.162;2022-09-01T14:58:17;27.40;55.30
44886;DHT22;36669;51.428;21.162;2022-09-01T15:00:43;26.80;54.80
44886;DHT22;36669;51.428;21.162;2022-09-01T15:03:08;27.30;54.20
44886;DHT22;36669;51.428;21.162;2022-09-01T15:05:35;27.50;53.30
44886;DHT22;36669;51.428;21.162;2022-09-01T15:08:01;27.70;52.20
44886;DHT22;36669;51.428;21.162;2022-09-01T15:10:26;28.30;53.00
44886;DHT22;36669;51.428;21.162;2022-09-01T15:12:57;28.40;52.90
44886;DHT22;36669;51.428;21.162;2022-09-01T15:15:25;28.80;53.40
44886;DHT22;36669;51.428;21.162;2022-09-01T15:17:51;28.30;53.30
44886;DHT22;36669;51.428;21.162;2022-09-01T15:20:17;28.80;53.60
44886;DHT22;36669;51.428;21.162;2022-09-01T15:22:42;29.00;52.20
44886;DHT22;36669;51.428;21.162;2022-09-01T15:25:08;28.60;52.20
44886;DHT22;36669;51.428;21.162;2022-09-01T15:27:33;28.10;51.70
44886;DHT22;36669;51.428;21.162;2022-09-01T15:29:59;27.80;52.00
44886;DHT22;36669;51.428;21.162;2022-09-01T15:32:24;27.70;52.40
44886;DHT22;36669;51.428;21.162;2022-09-01T15:34:50;27.50;51.80
44886;DHT22;36669;51.428;21.162;2022-09-01T15:37:15;25.70;54.20
44886;DHT22;36669;51.428;21.162;2022-09-01T15:39:41;24.10;57.20
44886;DHT22;36669;51.428;21.162;2022-09-01T15:42:06;23.00;60.00
44886;DHT22;36669;51.428;21.162;2022-09-01T15:44:32;22.30;62.00
44886;DHT22;36669;51.428;21.162;2022-09-01T15:46:58;21.70;63.80
44886;DHT22;36669;51.428;21.162;2022-09-01T15:49:23;21.90;65.30
44886;DHT22;36669;51.428;21.162;2022-09-01T15:51:49;23.10;64.20
44886;DHT22;36669;51.428;21.162;2022-09-01T15:54:17;24.10;61.60
44886;DHT22;36669;51.428;21.162;2022-09-01T15:56:43;24.60;57.50
44886;DHT22;36669;51.428;21.162;2022-09-01T15:59:10;25.20;55.60
44886;DHT22;36669;51.428;21.162;2022-09-01T16:01:38;25.20;55.90
44886;DHT22;36669;51.428;21.162;2022-09-01T16:04:07;25.40;54.90
44886;DHT22;36669;51.428;21.162;2022-09-01T16:06:33;25.60;54.60
44886;DHT22;36669;51.428;21.162;2022-09-01T16:08:59;25.70;54.70
44886;DHT22;36669;51.428;21.162;2022-09-01T16:11:25;26.10;53.70
44886;DHT22;36669;51.428;21.162;2022-09-01T16:13:51;25.60;53.80
44886;DHT22;36669;51.428;21.162;2022-09-01T16:16:35;25.80;54.00
44886;DHT22;36669;51.428;21.162;2022-09-01T16:19:23;25.60;54.40